createdAt,value
2022-10-31T00:01:34.604Z,12.70
2022-10-31T00:04:07.969Z,12.60
2022-10-31T00:06:37.666Z,12.60
2022-10-31T00:09:05.967Z,12.60
2022-10-31T00:11:33.037Z,12.60
2022-10-31T00:14:00.677Z,12.80
2022-10-31T00:16:31.927Z,12.60
2022-10-31T00:19:03.657Z,12.40
2022-10-31T00:21:32.677Z,12.40
2022-10-31T00:24:00.694Z,12.40
2022-10-31T00:26:31.421Z,12.50
2022-10-31T00:28:58.509Z,12.50
2022-10-31T00:31:25.686Z,12.50
2022-10-31T00:33:53.940Z,12.50
2022-10-31T00:36:23.788Z,12.60
2022-10-31T00:38:52.756Z,12.60
2022-10-31T00:41:20.105Z,12.60
2022-10-31T00:43:49.450Z,12.70
2022-10-31T00:46:28.343Z,12.60
2022-10-31T00:48:58.920Z,12.50
2022-10-31T00:51:28.290Z,12.60
2022-10-31T00:53:55.384Z,12.60
2022-10-31T00:56:28.215Z,12.60
2022-10-31T00:58:58.239Z,12.50
2022-10-31T01:01:25.345Z,12.40
2022-10-31T01:03:52.335Z,12.40
2022-10-31T01:06:20.595Z,12.50
2022-10-31T01:08:48.677Z,12.50
2022-10-31T01:11:18.746Z,12.60
2022-10-31T01:13:46.962Z,12.50
2022-10-31T01:16:19.959Z,12.40
2022-10-31T01:18:47.559Z,12.30
2022-10-31T01:21:26.918Z,12.30
2022-10-31T01:24:06.191Z,12.40
2022-10-31T01:26:39.008Z,12.50
2022-10-31T01:29:09.814Z,12.40
2022-10-31T01:31:42.833Z,12.30
2022-10-31T01:34:21.943Z,12.30
2022-10-31T01:36:52.273Z,12.30
2022-10-31T01:39:25.314Z,12.30
2022-10-31T01:41:54.418Z,12.40
2022-10-31T01:44:54.171Z,12.30
2022-10-31T01:47:43.016Z,12.40
2022-10-31T01:50:28.122Z,12.40
2022-10-31T01:52:57.000Z,12.40
2022-10-31T01:55:31.320Z,12.50
2022-10-31T02:01:08.061Z,12.30
2022-10-31T02:03:38.504Z,12.30
2022-10-31T02:06:11.930Z,12.30
2022-10-31T02:08:44.707Z,12.30
2022-10-31T02:11:17.544Z,12.20
2022-10-31T02:13:48.607Z,12.30
2022-10-31T02:16:15.639Z,12.30
2022-10-31T02:18:48.864Z,12.20
2022-10-31T02:21:24.595Z,12.20
2022-10-31T02:24:53.835Z,12.10
2022-10-31T02:28:01.016Z,12.20
2022-10-31T02:30:37.241Z,12.30
2022-10-31T02:33:25.914Z,12.30
2022-10-31T02:36:06.827Z,12.20
2022-10-31T02:38:49.234Z,12.10
2022-10-31T02:41:34.226Z,12.20
2022-10-31T02:44:10.505Z,12.20
2022-10-31T02:46:45.773Z,12.20
2022-10-31T02:49:24.355Z,12.20
2022-10-31T02:51:54.248Z,12.20
2022-10-31T02:54:32.098Z,12.10
2022-10-31T02:57:03.587Z,12.20
2022-10-31T02:59:47.403Z,12.20
2022-10-31T03:02:40.469Z,12.20
2022-10-31T03:05:24.951Z,12.10
2022-10-31T03:08:02.390Z,12.00
2022-10-31T03:10:41.623Z,12.10
2022-10-31T03:13:14.310Z,12.10
2022-10-31T03:15:45.212Z,12.10
2022-10-31T03:18:17.817Z,12.20
2022-10-31T03:20:57.545Z,12.10
2022-10-31T03:23:29.471Z,12.10
2022-10-31T03:25:56.446Z,12.00
2022-10-31T03:28:30.814Z,12.10
2022-10-31T03:31:02.260Z,12.10
2022-10-31T03:33:39.789Z,12.10
2022-10-31T03:36:14.488Z,12.10
2022-10-31T03:38:46.759Z,12.10
2022-10-31T03:41:26.532Z,12.00
2022-10-31T03:44:02.828Z,12.00
2022-10-31T03:46:30.133Z,12.10
2022-10-31T03:48:58.178Z,12.20
2022-10-31T03:51:33.490Z,12.20
2022-10-31T03:54:10.184Z,12.20
2022-10-31T03:56:42.877Z,12.20
2022-10-31T03:59:17.678Z,12.10
2022-10-31T04:01:52.846Z,12.10
2022-10-31T04:04:20.965Z,11.90
2022-10-31T04:06:53.852Z,12.00
2022-10-31T04:09:27.917Z,12.00
2022-10-31T04:11:58.061Z,11.80
2022-10-31T04:14:28.635Z,11.80
2022-10-31T04:16:55.772Z,11.80
2022-10-31T04:19:34.000Z,11.80
2022-10-31T04:22:02.820Z,11.70
2022-10-31T04:24:29.941Z,11.80
2022-10-31T04:26:59.640Z,11.90
2022-10-31T04:29:29.461Z,12.00
2022-10-31T04:31:56.403Z,11.90
2022-10-31T04:34:25.820Z,11.90
2022-10-31T04:36:55.748Z,11.90
2022-10-31T04:39:26.928Z,11.90
2022-10-31T04:41:56.967Z,11.90
2022-10-31T04:44:24.115Z,12.00
2022-10-31T04:46:56.904Z,11.80
2022-10-31T04:49:24.028Z,11.90
2022-10-31T04:51:56.012Z,11.80
2022-10-31T04:54:27.412Z,11.80
2022-10-31T04:56:54.334Z,11.90
2022-10-31T04:59:21.367Z,11.80
2022-10-31T05:01:48.309Z,11.90
2022-10-31T05:04:15.330Z,11.80
2022-10-31T05:06:44.140Z,11.90
2022-10-31T05:09:16.683Z,11.90
2022-10-31T05:11:44.913Z,11.90
2022-10-31T05:14:11.825Z,11.90
2022-10-31T05:16:38.702Z,11.80
2022-10-31T05:19:06.211Z,11.80
2022-10-31T05:21:36.302Z,11.90
2022-10-31T05:24:04.019Z,11.90
2022-10-31T05:26:34.030Z,11.90
2022-10-31T05:29:02.322Z,11.70
2022-10-31T05:31:29.380Z,11.70
2022-10-31T05:33:56.608Z,11.60
2022-10-31T05:36:23.534Z,11.60
2022-10-31T05:38:50.623Z,11.60
2022-10-31T05:41:17.578Z,11.60
2022-10-31T05:43:47.038Z,11.70
2022-10-31T05:46:24.509Z,11.60
2022-10-31T05:48:56.389Z,11.60
2022-10-31T05:51:24.447Z,11.70
2022-10-31T05:53:51.804Z,11.70
2022-10-31T05:56:18.744Z,11.80
2022-10-31T05:58:45.691Z,11.70
2022-10-31T06:01:15.554Z,11.70
2022-10-31T06:03:45.322Z,11.70
2022-10-31T06:06:12.237Z,11.60
2022-10-31T06:08:39.398Z,11.60
2022-10-31T06:11:09.077Z,11.70
2022-10-31T06:13:39.137Z,11.80
2022-10-31T06:16:09.035Z,11.80
2022-10-31T06:18:35.989Z,11.80
2022-10-31T06:21:04.555Z,11.80
2022-10-31T06:23:31.567Z,11.70
2022-10-31T06:26:04.647Z,11.80
2022-10-31T06:28:31.704Z,11.80
2022-10-31T06:31:10.234Z,11.70
2022-10-31T06:33:37.206Z,11.80
2022-10-31T06:36:09.383Z,11.80
2022-10-31T06:38:38.407Z,11.70
2022-10-31T06:41:06.392Z,11.80
2022-10-31T06:43:38.448Z,11.90
2022-10-31T06:46:06.596Z,12.00
2022-10-31T06:48:36.504Z,12.00
2022-10-31T06:51:03.576Z,12.10
2022-10-31T06:53:35.191Z,12.20
2022-10-31T06:56:02.309Z,12.20
2022-10-31T06:58:29.466Z,12.10
2022-10-31T07:00:56.543Z,12.10
2022-10-31T07:03:23.603Z,12.30
2022-10-31T07:05:50.483Z,12.30
2022-10-31T07:08:24.604Z,12.30
2022-10-31T07:10:56.083Z,12.30
2022-10-31T07:13:26.492Z,12.30
2022-10-31T07:15:55.178Z,12.40
2022-10-31T07:18:22.860Z,12.30
2022-10-31T07:20:49.851Z,12.40
2022-10-31T07:23:19.870Z,12.40
2022-10-31T07:25:46.754Z,12.40
2022-10-31T07:28:15.080Z,12.40
2022-10-31T07:30:42.077Z,12.40
2022-10-31T07:33:10.023Z,12.50
2022-10-31T07:35:37.000Z,12.50
2022-10-31T07:38:11.562Z,12.60
2022-10-31T07:40:40.616Z,12.70
2022-10-31T07:43:11.534Z,12.90
2022-10-31T07:45:44.725Z,13.00
2022-10-31T07:48:13.870Z,13.10
2022-10-31T07:50:40.926Z,13.20
2022-10-31T07:53:13.096Z,13.20
2022-10-31T07:55:43.915Z,13.20
2022-10-31T07:58:13.537Z,13.20
2022-10-31T08:00:43.958Z,13.20
2022-10-31T08:03:19.876Z,13.30
2022-10-31T08:05:52.446Z,13.40
2022-10-31T08:08:21.630Z,13.50
2022-10-31T08:10:58.855Z,13.50
2022-10-31T08:13:26.612Z,13.50
2022-10-31T08:16:04.356Z,13.70
2022-10-31T08:18:31.672Z,13.70
2022-10-31T08:21:01.908Z,13.80
2022-10-31T08:23:30.857Z,13.90
2022-10-31T08:26:01.303Z,14.00
2022-10-31T08:28:28.262Z,14.00
2022-10-31T08:31:00.667Z,14.10
2022-10-31T08:33:30.405Z,14.20
2022-10-31T08:36:00.373Z,14.20
2022-10-31T08:38:27.290Z,14.30
2022-10-31T08:40:57.287Z,14.30
2022-10-31T08:43:25.439Z,14.30
2022-10-31T08:45:55.419Z,14.40
2022-10-31T08:48:44.648Z,14.40
2022-10-31T08:51:12.159Z,14.50
2022-10-31T08:53:39.115Z,14.50
2022-10-31T08:56:13.995Z,14.60
2022-10-31T08:58:40.935Z,14.60
2022-10-31T09:01:08.157Z,14.70
2022-10-31T09:03:39.257Z,14.70
2022-10-31T09:06:13.593Z,14.90
2022-10-31T09:08:45.488Z,14.90
2022-10-31T09:11:12.554Z,14.90
2022-10-31T09:13:42.261Z,14.90
2022-10-31T09:16:09.354Z,15.00
2022-10-31T09:18:36.301Z,15.00
2022-10-31T09:21:05.311Z,15.00
2022-10-31T09:23:32.836Z,15.10
2022-10-31T09:26:02.165Z,15.10
2022-10-31T09:28:29.127Z,15.10
2022-10-31T09:30:59.013Z,15.10
2022-10-31T09:33:28.100Z,15.10
2022-10-31T09:35:55.077Z,15.20
2022-10-31T09:38:24.283Z,15.30
2022-10-31T09:41:03.926Z,15.20
2022-10-31T09:43:42.933Z,15.20
2022-10-31T09:46:19.971Z,15.30
2022-10-31T09:49:02.249Z,15.40
2022-10-31T09:51:35.737Z,15.40
2022-10-31T09:54:09.338Z,15.40
2022-10-31T09:56:39.556Z,15.40
2022-10-31T09:59:17.927Z,15.40
2022-10-31T10:01:51.312Z,15.40
2022-10-31T10:04:36.047Z,15.50
2022-10-31T10:07:20.354Z,15.60
2022-10-31T10:09:51.936Z,15.70
2022-10-31T10:12:48.710Z,15.80
2022-10-31T10:15:37.619Z,15.80
2022-10-31T10:18:15.342Z,15.90
2022-10-31T10:20:51.256Z,15.90
2022-10-31T10:23:38.318Z,15.90
2022-10-31T10:26:17.403Z,15.90
2022-10-31T10:28:51.168Z,16.00
2022-10-31T10:31:27.724Z,16.00
2022-10-31T10:34:08.393Z,16.00
2022-10-31T10:36:45.769Z,16.10
2022-10-31T10:39:22.244Z,16.20
2022-10-31T10:42:10.918Z,16.20
2022-10-31T10:45:00.263Z,16.20
2022-10-31T10:47:41.568Z,16.20
2022-10-31T10:50:16.135Z,16.20
2022-10-31T10:52:54.640Z,16.20
2022-10-31T10:55:37.685Z,16.40
2022-10-31T10:58:09.195Z,16.30
2022-10-31T11:00:41.131Z,16.40
2022-10-31T11:03:08.635Z,16.50
2022-10-31T11:05:39.885Z,16.50
2022-10-31T11:08:08.749Z,16.50
2022-10-31T11:10:36.327Z,16.60
2022-10-31T11:13:22.535Z,16.70
2022-10-31T11:16:04.110Z,16.70
2022-10-31T11:18:33.576Z,16.70
2022-10-31T11:21:03.663Z,16.70
2022-10-31T11:23:31.592Z,16.70
2022-10-31T11:26:01.741Z,16.80
2022-10-31T11:28:33.365Z,16.80
2022-10-31T11:31:02.427Z,16.80
2022-10-31T11:33:34.613Z,16.90
2022-10-31T11:36:18.404Z,16.90
2022-10-31T11:38:45.550Z,17.00
2022-10-31T11:41:24.925Z,16.90
2022-10-31T11:43:56.816Z,17.00
2022-10-31T11:46:38.557Z,17.00
2022-10-31T11:49:12.513Z,17.00
2022-10-31T11:51:40.775Z,17.10
2022-10-31T11:54:21.963Z,17.10
2022-10-31T11:56:49.529Z,17.20
2022-10-31T11:59:26.269Z,17.20
2022-10-31T12:02:01.106Z,17.20
2022-10-31T12:04:38.987Z,17.20
2022-10-31T12:07:05.977Z,17.20
2022-10-31T12:09:36.945Z,17.30
2022-10-31T12:12:27.161Z,17.30
2022-10-31T12:15:17.296Z,17.40
2022-10-31T12:18:04.805Z,17.40
2022-10-31T12:20:50.079Z,17.50
2022-10-31T12:23:31.900Z,17.50
2022-10-31T12:26:16.017Z,17.50
2022-10-31T12:29:13.248Z,17.60
2022-10-31T12:32:06.217Z,17.60
2022-10-31T12:35:01.239Z,17.70
2022-10-31T12:37:49.820Z,17.70
2022-10-31T12:40:53.366Z,17.60
2022-10-31T12:43:37.646Z,17.60
2022-10-31T12:46:23.209Z,17.70
2022-10-31T12:49:25.173Z,17.70
2022-10-31T12:52:24.115Z,17.80
2022-10-31T12:55:11.650Z,17.90
2022-10-31T12:57:52.307Z,18.00
2022-10-31T13:00:26.561Z,18.00
2022-10-31T13:03:18.974Z,18.00
2022-10-31T13:05:52.157Z,17.90
2022-10-31T13:08:23.351Z,17.80
2022-10-31T13:13:38.887Z,17.80
2022-10-31T13:16:14.126Z,17.80
2022-10-31T13:18:47.927Z,17.70
2022-10-31T13:21:24.579Z,17.70
2022-10-31T13:23:52.813Z,17.70
2022-10-31T13:26:39.609Z,17.70
2022-10-31T13:29:18.396Z,17.70
2022-10-31T13:31:45.613Z,17.70
2022-10-31T13:34:26.535Z,17.80
2022-10-31T13:37:05.343Z,17.80
2022-10-31T13:39:49.003Z,17.80
2022-10-31T13:42:37.083Z,17.70
2022-10-31T13:45:15.172Z,17.80
2022-10-31T13:47:46.366Z,17.80
2022-10-31T13:50:30.516Z,17.80
2022-10-31T13:53:22.952Z,17.80
2022-10-31T13:56:04.255Z,17.80
2022-10-31T13:58:34.042Z,17.70
2022-10-31T14:01:17.168Z,17.70
2022-10-31T14:06:42.995Z,17.80
2022-10-31T14:09:39.793Z,17.70
2022-10-31T14:12:22.032Z,17.70
2022-10-31T14:15:05.018Z,17.70
2022-10-31T14:17:45.959Z,17.70
2022-10-31T14:20:39.777Z,17.70
2022-10-31T14:23:41.516Z,17.70
2022-10-31T14:26:37.189Z,17.70
2022-10-31T14:29:27.772Z,17.70
2022-10-31T14:31:59.577Z,17.70
2022-10-31T14:34:35.674Z,17.80
2022-10-31T14:37:36.278Z,17.80
2022-10-31T14:40:28.645Z,17.90
2022-10-31T14:43:51.170Z,17.80
2022-10-31T14:46:48.089Z,17.90
2022-10-31T14:49:39.707Z,18.00
2022-10-31T14:52:11.179Z,18.10
2022-10-31T14:54:46.750Z,18.00
2022-10-31T14:57:21.928Z,17.90
2022-10-31T15:00:07.698Z,17.90
2022-10-31T15:02:50.352Z,17.80
2022-10-31T15:05:21.023Z,17.80
2022-10-31T15:07:52.671Z,17.80
2022-10-31T15:10:31.057Z,17.70
2022-10-31T15:13:11.009Z,17.60
2022-10-31T15:15:46.957Z,17.60
2022-10-31T15:18:19.508Z,17.60
2022-10-31T15:20:51.474Z,17.50
2022-10-31T15:23:24.758Z,17.50
2022-10-31T15:25:52.185Z,17.40
2022-10-31T15:28:28.497Z,17.40
2022-10-31T15:31:13.881Z,17.40
2022-10-31T15:33:55.699Z,17.40
2022-10-31T15:36:28.487Z,17.50
2022-10-31T15:39:00.420Z,17.50
2022-10-31T15:41:37.113Z,17.50
2022-10-31T15:44:22.926Z,17.50
2022-10-31T15:47:01.473Z,17.50
2022-10-31T15:49:53.608Z,17.50
2022-10-31T15:52:35.504Z,17.50
2022-10-31T15:55:19.263Z,17.60
2022-10-31T15:57:49.566Z,17.60
2022-10-31T16:00:34.548Z,17.60
2022-10-31T16:03:26.941Z,17.50
2022-10-31T16:05:55.913Z,17.40
2022-10-31T16:08:37.029Z,17.40
2022-10-31T16:11:26.253Z,17.40
2022-10-31T16:13:57.322Z,17.30
2022-10-31T16:16:40.460Z,17.30
2022-10-31T16:19:23.920Z,17.30
2022-10-31T16:22:06.779Z,17.20
2022-10-31T16:24:36.506Z,17.00
2022-10-31T16:27:20.724Z,17.10
2022-10-31T16:29:50.864Z,17.00
2022-10-31T16:32:30.586Z,16.80
2022-10-31T16:35:19.303Z,16.80
2022-10-31T16:37:55.567Z,16.80
2022-10-31T16:40:27.800Z,16.90
2022-10-31T16:42:54.858Z,16.90
2022-10-31T16:45:27.836Z,16.80
2022-10-31T16:47:54.912Z,16.60
2022-10-31T16:50:27.245Z,16.50
2022-10-31T16:53:14.142Z,16.50
2022-10-31T16:55:45.875Z,16.60
2022-10-31T16:58:20.474Z,16.60
2022-10-31T17:00:50.801Z,16.50
2022-10-31T17:03:21.327Z,16.40
2022-10-31T17:06:01.760Z,16.30
2022-10-31T17:08:28.764Z,16.20
2022-10-31T17:11:03.855Z,16.10
2022-10-31T17:13:35.042Z,16.10
2022-10-31T17:16:13.446Z,16.10
2022-10-31T17:18:42.930Z,16.20
2022-10-31T17:21:20.032Z,16.20
2022-10-31T17:23:47.490Z,16.20
2022-10-31T17:26:17.480Z,16.20
2022-10-31T17:28:44.515Z,16.10
2022-10-31T17:31:29.708Z,15.90
2022-10-31T17:34:02.258Z,15.90
2022-10-31T17:36:32.726Z,16.00
2022-10-31T17:39:09.513Z,16.00
2022-10-31T17:41:36.497Z,16.00
2022-10-31T17:44:04.074Z,16.10
2022-10-31T17:46:33.632Z,16.00
2022-10-31T17:49:05.086Z,16.00
2022-10-31T17:51:41.087Z,15.70
2022-10-31T17:54:09.077Z,15.50
2022-10-31T17:56:39.025Z,15.40
2022-10-31T17:59:11.140Z,15.30
2022-10-31T18:01:38.949Z,15.00
2022-10-31T18:04:05.905Z,15.10
2022-10-31T18:06:34.187Z,15.10
2022-10-31T18:09:10.278Z,15.20
2022-10-31T18:11:47.972Z,15.00
2022-10-31T18:14:14.898Z,15.00
2022-10-31T18:16:41.997Z,15.20
2022-10-31T18:19:13.132Z,15.20
2022-10-31T18:21:46.566Z,15.20
2022-10-31T18:24:13.905Z,15.20
2022-10-31T18:26:41.105Z,15.00
2022-10-31T18:29:08.067Z,14.80
2022-10-31T18:31:42.250Z,14.70
2022-10-31T18:34:09.468Z,14.60
2022-10-31T18:36:43.993Z,14.70
2022-10-31T18:39:16.261Z,14.80
2022-10-31T18:41:43.351Z,14.80
2022-10-31T18:44:13.218Z,14.70
2022-10-31T18:46:40.272Z,14.60
2022-10-31T18:49:10.220Z,14.60
2022-10-31T18:51:37.272Z,14.70
2022-10-31T18:54:05.691Z,14.60
2022-10-31T18:56:32.708Z,14.60
2022-10-31T18:59:03.140Z,14.30
2022-10-31T19:01:30.702Z,14.30
2022-10-31T19:03:59.723Z,14.40
2022-10-31T19:06:27.648Z,14.50
2022-10-31T19:09:03.380Z,14.50
2022-10-31T19:11:33.724Z,14.50
2022-10-31T19:14:11.078Z,14.60
2022-10-31T19:16:38.103Z,14.60
2022-10-31T19:19:05.385Z,14.60
2022-10-31T19:21:35.507Z,14.50
2022-10-31T19:24:02.526Z,14.40
2022-10-31T19:26:36.109Z,14.10
2022-10-31T19:29:03.262Z,14.10
2022-10-31T19:31:30.678Z,14.20
2022-10-31T19:34:00.677Z,14.20
2022-10-31T19:36:34.735Z,14.20
2022-10-31T19:39:01.625Z,14.10
2022-10-31T19:41:39.075Z,14.20
2022-10-31T19:44:11.921Z,14.10
2022-10-31T19:46:52.870Z,14.10
2022-10-31T19:49:23.856Z,14.10
2022-10-31T19:51:53.983Z,13.90
2022-10-31T19:54:21.127Z,13.90
2022-10-31T19:56:49.400Z,13.80
2022-10-31T19:59:16.358Z,13.70
2022-10-31T20:01:43.330Z,13.70
2022-10-31T20:04:10.789Z,13.70
2022-10-31T20:06:45.252Z,13.70
2022-10-31T20:09:14.276Z,13.60
2022-10-31T20:11:44.242Z,13.50
2022-10-31T20:14:15.208Z,13.60
2022-10-31T20:16:43.308Z,13.60
2022-10-31T20:19:10.253Z,13.60
2022-10-31T20:21:40.019Z,13.50
2022-10-31T20:24:09.816Z,13.40
2022-10-31T20:26:38.954Z,13.30
2022-10-31T20:29:16.042Z,13.30
2022-10-31T20:31:45.017Z,13.20
2022-10-31T20:34:14.371Z,13.30
2022-10-31T20:36:44.464Z,13.40
2022-10-31T20:39:13.728Z,13.40
2022-10-31T20:41:40.794Z,13.30
2022-10-31T20:44:10.817Z,13.20
2022-10-31T20:46:41.301Z,13.30
2022-10-31T20:49:08.518Z,13.40
2022-10-31T20:51:35.434Z,13.40
2022-10-31T20:54:02.501Z,13.40
2022-10-31T20:56:29.800Z,13.50
2022-10-31T20:58:57.543Z,13.60
2022-10-31T21:01:27.051Z,13.60
2022-10-31T21:04:04.398Z,13.60
2022-10-31T21:06:35.268Z,13.60
2022-10-31T21:09:02.166Z,13.40
2022-10-31T21:11:29.601Z,13.20
2022-10-31T21:13:59.871Z,13.20
2022-10-31T21:16:29.751Z,13.10
2022-10-31T21:19:01.120Z,13.10
2022-10-31T21:21:32.522Z,13.10
2022-10-31T21:24:06.297Z,13.20
2022-10-31T21:26:52.130Z,13.10
2022-10-31T21:29:22.244Z,13.10
2022-10-31T21:31:49.485Z,13.00
2022-10-31T21:34:17.789Z,13.00
2022-10-31T21:36:44.885Z,12.90
2022-10-31T21:39:12.066Z,13.00
2022-10-31T21:41:39.012Z,13.10
2022-10-31T21:44:06.218Z,13.20
2022-10-31T21:46:34.367Z,13.20
2022-10-31T21:49:03.434Z,13.10
2022-10-31T21:51:35.205Z,13.00
2022-10-31T21:54:20.834Z,13.00
2022-10-31T21:56:49.120Z,13.00
2022-10-31T21:59:16.074Z,13.10
2022-10-31T22:01:43.188Z,13.10
2022-10-31T22:04:10.945Z,13.10
2022-10-31T22:06:39.440Z,13.20
2022-10-31T22:09:08.937Z,13.10
2022-10-31T22:11:36.354Z,13.20
2022-10-31T22:14:05.214Z,13.20
2022-10-31T22:16:35.936Z,13.20
2022-10-31T22:19:05.632Z,13.30
2022-10-31T22:21:37.702Z,13.30
2022-10-31T22:24:07.880Z,13.30
2022-10-31T22:26:35.701Z,13.40
2022-10-31T22:29:05.121Z,13.30
2022-10-31T22:31:34.340Z,13.30
2022-10-31T22:34:01.766Z,13.40
2022-10-31T22:36:32.165Z,13.20
2022-10-31T22:39:00.197Z,13.20
2022-10-31T22:41:31.290Z,13.30
2022-10-31T22:44:01.651Z,13.20
2022-10-31T22:46:31.348Z,13.00
2022-10-31T22:49:00.849Z,12.90
2022-10-31T22:51:31.990Z,12.90
2022-10-31T22:53:59.783Z,13.00
2022-10-31T22:56:31.841Z,13.10
2022-10-31T22:58:59.699Z,13.10
2022-10-31T23:01:29.759Z,13.10
2022-10-31T23:03:56.969Z,13.10
2022-10-31T23:06:28.264Z,13.10
2022-10-31T23:08:55.335Z,13.10
2022-10-31T23:11:24.746Z,13.10
2022-10-31T23:14:14.523Z,13.10
2022-10-31T23:16:45.248Z,13.10
2022-10-31T23:19:15.372Z,13.00
2022-10-31T23:22:04.523Z,13.00
2022-10-31T23:24:35.470Z,13.00
2022-10-31T23:27:09.397Z,13.10
2022-10-31T23:29:46.921Z,13.10
2022-10-31T23:32:19.589Z,13.20
2022-10-31T23:34:48.386Z,13.30
2022-10-31T23:37:18.404Z,13.30
2022-10-31T23:39:45.501Z,13.20
2022-10-31T23:42:13.697Z,13.20
2022-10-31T23:44:40.762Z,13.20
2022-10-31T23:47:09.123Z,13.20
2022-10-31T23:49:39.137Z,13.40
2022-10-31T23:52:06.726Z,13.40
2022-10-31T23:54:36.784Z,13.40
2022-10-31T23:57:04.624Z,13.50
2022-10-31T23:59:32.097Z,13.50
